createdAt,value
2022-08-17T00:00:42.579Z,67.56
2022-08-17T00:03:48.322Z,67.34
2022-08-17T00:06:50.893Z,67.35
2022-08-17T00:09:53.305Z,67.41
2022-08-17T00:12:55.728Z,67.22
2022-08-17T00:16:03.591Z,67.98
2022-08-17T00:19:08.897Z,66.86
2022-08-17T00:22:32.891Z,67.03
2022-08-17T00:25:34.592Z,67.32
2022-08-17T00:28:38.527Z,67.45
2022-08-17T00:31:40.958Z,68.33
2022-08-17T00:34:43.370Z,69.79
2022-08-17T00:37:45.526Z,70.33
2022-08-17T00:41:00.098Z,71.38
2022-08-17T00:44:05.124Z,72.02
2022-08-17T00:47:07.746Z,72.37
2022-08-17T00:50:15.703Z,72.47
2022-08-17T00:53:18.058Z,72.82
2022-08-17T00:56:28.630Z,73.35
2022-08-17T00:59:37.388Z,73.73
2022-08-17T01:02:43.993Z,74.96
2022-08-17T01:05:50.411Z,75.05
2022-08-17T01:08:57.499Z,75.62
2022-08-17T01:12:00.485Z,76.67
2022-08-17T01:15:04.153Z,77.10
2022-08-17T01:18:09.499Z,77.44
2022-08-17T01:21:36.382Z,78.29
2022-08-17T01:24:47.309Z,79.44
2022-08-17T01:27:49.831Z,78.91
2022-08-17T01:30:58.254Z,78.70
2022-08-17T01:34:06.654Z,78.17
2022-08-17T01:37:09.430Z,78.48
2022-08-17T01:40:35.163Z,79.83
2022-08-17T01:43:45.493Z,79.07
2022-08-17T01:46:47.702Z,80.04
2022-08-17T01:49:50.649Z,80.91
2022-08-17T01:52:58.173Z,81.76
2022-08-17T01:56:07.103Z,81.90
2022-08-17T01:59:10.085Z,80.53
2022-08-17T02:02:12.573Z,80.85
2022-08-17T02:05:35.192Z,80.03
2022-08-17T02:08:39.486Z,79.99
2022-08-17T02:12:38.172Z,79.74
2022-08-17T02:15:27.016Z,79.72
2022-08-17T02:18:30.189Z,80.49
2022-08-17T02:21:32.500Z,80.35
2022-08-17T02:24:58.697Z,80.74
2022-08-17T02:28:00.544Z,80.41
2022-08-17T02:31:08.749Z,78.86
2022-08-17T02:34:11.157Z,80.44
2022-08-17T02:37:14.135Z,80.14
2022-08-17T02:40:17.057Z,80.81
2022-08-17T02:43:35.873Z,81.28
2022-08-17T02:46:38.052Z,80.70
2022-08-17T02:49:40.492Z,79.94
2022-08-17T02:52:44.687Z,79.11
2022-08-17T02:55:53.262Z,79.38
2022-08-17T02:58:55.558Z,79.70
2022-08-17T03:01:58.033Z,79.95
2022-08-17T03:05:00.213Z,80.73
2022-08-17T03:08:05.559Z,80.99
2022-08-17T03:11:07.872Z,81.51
2022-08-17T03:14:10.733Z,81.47
2022-08-17T03:17:17.347Z,81.38
2022-08-17T03:20:21.539Z,81.80
2022-08-17T03:23:25.593Z,81.82
2022-08-17T03:26:29.623Z,81.92
2022-08-17T03:29:32.034Z,82.61
2022-08-17T03:32:46.395Z,82.26
2022-08-17T03:35:48.838Z,81.83
2022-08-17T03:38:51.589Z,81.33
2022-08-17T03:41:55.156Z,81.38
2022-08-17T03:44:58.211Z,81.47
2022-08-17T03:48:21.616Z,80.66
2022-08-17T03:52:01.582Z,80.89
2022-08-17T03:55:35.840Z,80.92
2022-08-17T03:58:40.432Z,81.08
2022-08-17T04:01:50.337Z,80.32
2022-08-17T04:05:03.090Z,81.39
2022-08-17T04:08:10.155Z,81.40
2022-08-17T04:11:15.833Z,80.33
2022-08-17T04:14:22.002Z,80.24
2022-08-17T04:17:51.085Z,80.24
2022-08-17T04:20:57.508Z,80.07
2022-08-17T04:27:40.646Z,79.17
2022-08-17T04:31:05.718Z,78.43
2022-08-17T04:34:14.599Z,78.21
2022-08-17T04:37:34.156Z,77.76
2022-08-17T04:41:04.201Z,77.58
2022-08-17T04:44:13.623Z,77.30
2022-08-17T04:51:32.369Z,76.31
2022-08-17T04:54:39.248Z,75.29
2022-08-17T04:57:53.765Z,74.24
2022-08-17T05:01:04.172Z,74.03
2022-08-17T05:04:32.155Z,72.97
2022-08-17T05:07:39.608Z,68.18
2022-08-17T05:10:45.215Z,55.57
2022-08-17T05:13:50.773Z,49.18
2022-08-17T05:16:55.299Z,43.87
2022-08-17T05:19:59.424Z,40.54
2022-08-17T05:23:13.983Z,37.55
2022-08-17T05:26:26.534Z,34.87
2022-08-17T05:29:33.634Z,32.97
2022-08-17T05:32:40.371Z,30.80
2022-08-17T05:35:49.864Z,30.99
2022-08-17T05:38:52.499Z,30.46
2022-08-17T05:41:55.429Z,29.54
2022-08-17T05:44:59.319Z,28.83
2022-08-17T05:48:04.488Z,27.82
2022-08-17T05:51:31.973Z,26.54
2022-08-17T05:54:39.510Z,26.63
2022-08-17T05:57:55.932Z,25.50
2022-08-17T06:01:09.642Z,25.00
2022-08-17T06:04:23.692Z,24.29
2022-08-17T06:07:36.869Z,24.78
2022-08-17T06:10:55.964Z,24.84
2022-08-17T06:14:06.206Z,25.71
2022-08-17T06:17:14.481Z,25.70
2022-08-17T06:20:17.233Z,24.91
2022-08-17T06:24:02.471Z,24.57
2022-08-17T06:27:23.453Z,24.13
2022-08-17T06:30:59.107Z,22.51
2022-08-17T06:33:51.885Z,22.53
2022-08-17T06:37:09.060Z,23.54
2022-08-17T06:40:36.229Z,21.88
2022-08-17T06:44:06.582Z,22.12
2022-08-17T06:47:27.923Z,21.62
2022-08-17T06:50:35.938Z,22.05
2022-08-17T06:54:06.404Z,21.23
2022-08-17T06:57:30.610Z,21.48
2022-08-17T07:00:41.708Z,19.04
2022-08-17T07:03:59.406Z,21.20
2022-08-17T07:07:28.742Z,20.88
2022-08-17T07:10:43.009Z,20.86
2022-08-17T07:14:15.219Z,19.29
2022-08-17T07:17:21.530Z,18.87
2022-08-17T07:20:48.406Z,18.76
2022-08-17T07:24:30.749Z,19.50
2022-08-17T07:27:45.297Z,18.44
2022-08-17T07:30:54.388Z,18.66
2022-08-17T07:34:01.705Z,18.37
2022-08-17T07:37:05.298Z,18.43
2022-08-17T07:40:27.560Z,17.84
2022-08-17T07:43:41.798Z,19.19
2022-08-17T07:47:12.818Z,19.74
2022-08-17T07:50:27.524Z,20.43
2022-08-17T07:53:32.022Z,21.99
2022-08-17T07:56:39.408Z,23.18
2022-08-17T08:00:01.698Z,23.20
2022-08-17T08:03:23.713Z,25.43
2022-08-17T08:06:28.734Z,25.98
2022-08-17T08:09:41.736Z,27.42
2022-08-17T08:13:00.426Z,28.42
2022-08-17T08:16:22.592Z,28.71
2022-08-17T08:19:26.202Z,30.43
2022-08-17T08:22:38.303Z,30.92
2022-08-17T08:25:40.587Z,32.08
2022-08-17T08:29:00.408Z,32.09
2022-08-17T08:32:08.138Z,32.67
2022-08-17T08:35:26.783Z,33.07
2022-08-17T08:38:34.917Z,33.90
2022-08-17T08:41:49.121Z,34.63
2022-08-17T08:45:10.058Z,34.19
2022-08-17T08:48:53.000Z,34.41
2022-08-17T08:51:56.697Z,33.61
2022-08-17T08:55:11.554Z,34.10
2022-08-17T08:58:31.563Z,34.68
2022-08-17T09:02:09.658Z,34.42
2022-08-17T09:05:29.568Z,34.59
2022-08-17T09:08:44.073Z,34.40
2022-08-17T09:12:04.134Z,34.39
2022-08-17T09:15:21.784Z,34.40
2022-08-17T09:19:01.562Z,33.86
2022-08-17T09:21:58.419Z,33.65
2022-08-17T09:25:13.644Z,33.96
2022-08-17T09:28:20.589Z,33.89
2022-08-17T09:31:35.452Z,33.25
2022-08-17T09:34:56.563Z,34.73
2022-08-17T09:38:16.207Z,34.10
2022-08-17T09:41:49.307Z,33.44
2022-08-17T09:45:06.907Z,33.80
2022-08-17T09:48:21.369Z,32.67
2022-08-17T09:51:48.605Z,31.80
2022-08-17T09:54:53.396Z,31.91
2022-08-17T09:58:34.696Z,32.74
2022-08-17T10:01:55.385Z,33.44
2022-08-17T10:05:07.353Z,32.90
2022-08-17T10:08:47.963Z,33.42
2022-08-17T10:12:17.122Z,34.16
2022-08-17T10:15:30.439Z,34.00
2022-08-17T10:18:49.656Z,33.84
2022-08-17T10:22:14.881Z,31.34
2022-08-17T10:26:14.436Z,30.90
2022-08-17T10:29:25.084Z,27.38
2022-08-17T10:32:40.748Z,27.02
2022-08-17T10:35:59.235Z,27.21
2022-08-17T10:39:15.904Z,26.59
2022-08-17T10:42:57.534Z,26.83
2022-08-17T10:46:31.388Z,25.56
2022-08-17T10:49:56.152Z,25.42
2022-08-17T10:52:58.896Z,24.71
2022-08-17T10:56:13.491Z,24.96
2022-08-17T10:59:34.681Z,24.83
2022-08-17T11:02:52.388Z,25.60
2022-08-17T11:06:14.144Z,23.94
2022-08-17T11:09:50.119Z,23.21
2022-08-17T11:13:15.117Z,25.03
2022-08-17T11:16:36.289Z,25.34
2022-08-17T11:19:47.865Z,24.59
2022-08-17T11:22:58.047Z,23.62
2022-08-17T11:26:04.091Z,23.15
2022-08-17T11:29:17.969Z,24.24
2022-08-17T11:32:38.769Z,25.62
2022-08-17T11:36:04.161Z,25.16
2022-08-17T11:39:25.222Z,25.82
2022-08-17T11:43:04.756Z,27.38
2022-08-17T11:46:23.085Z,27.85
2022-08-17T11:50:00.648Z,26.96
2022-08-17T11:53:05.893Z,27.10
2022-08-17T11:56:31.541Z,28.47
2022-08-17T11:59:36.910Z,28.52
2022-08-17T12:02:48.141Z,29.04
2022-08-17T12:06:01.084Z,28.51
2022-08-17T12:09:13.621Z,29.67
2022-08-17T12:12:35.477Z,26.94
2022-08-17T12:15:48.663Z,25.80
2022-08-17T12:18:57.963Z,25.54
2022-08-17T12:22:12.940Z,27.23
2022-08-17T12:25:25.975Z,26.16
2022-08-17T12:28:35.968Z,26.34
2022-08-17T12:31:49.433Z,25.70
2022-08-17T12:34:51.821Z,26.11
2022-08-17T12:37:57.663Z,25.62
2022-08-17T12:41:21.013Z,25.12
2022-08-17T12:44:36.088Z,24.65
2022-08-17T12:47:48.737Z,24.83
2022-08-17T12:50:52.409Z,23.65
2022-08-17T12:53:55.556Z,24.35
2022-08-17T12:57:04.588Z,24.07
2022-08-17T13:00:17.504Z,25.06
2022-08-17T13:03:23.151Z,24.49
2022-08-17T13:06:34.328Z,24.30
2022-08-17T13:09:40.392Z,24.66
2022-08-17T13:12:43.092Z,24.95
2022-08-17T13:15:54.056Z,24.87
2022-08-17T13:19:08.407Z,24.34
2022-08-17T13:22:12.823Z,23.19
2022-08-17T13:25:16.749Z,22.87
2022-08-17T13:28:30.593Z,24.92
2022-08-17T13:31:51.786Z,24.07
2022-08-17T13:35:14.455Z,23.51
2022-08-17T13:38:36.241Z,23.59
2022-08-17T13:41:38.948Z,22.87
2022-08-17T13:44:41.435Z,22.94
2022-08-17T13:47:44.038Z,22.28
2022-08-17T13:50:55.480Z,22.33
2022-08-17T13:54:00.343Z,22.76
2022-08-17T13:57:05.187Z,22.59
2022-08-17T14:00:29.962Z,22.84
2022-08-17T14:03:32.598Z,23.28
2022-08-17T14:06:54.779Z,22.53
2022-08-17T14:10:06.051Z,22.39
2022-08-17T14:13:14.751Z,23.21
2022-08-17T14:16:17.376Z,23.69
2022-08-17T14:19:21.957Z,23.16
2022-08-17T14:22:31.307Z,23.72
2022-08-17T14:25:33.518Z,24.11
2022-08-17T14:28:38.640Z,24.14
2022-08-17T14:31:57.328Z,24.22
2022-08-17T14:35:03.646Z,23.73
2022-08-17T14:38:06.021Z,23.65
2022-08-17T14:41:08.569Z,24.16
2022-08-17T14:44:12.550Z,24.49
2022-08-17T14:47:15.888Z,24.67
2022-08-17T14:50:21.325Z,25.33
2022-08-17T14:53:24.957Z,24.96
2022-08-17T14:56:27.280Z,24.49
2022-08-17T14:59:35.184Z,25.47
2022-08-17T15:03:03.944Z,25.30
2022-08-17T15:06:06.872Z,25.10
2022-08-17T15:09:09.098Z,26.06
2022-08-17T15:12:26.428Z,25.65
2022-08-17T15:15:34.114Z,26.37
2022-08-17T15:18:36.709Z,25.58
2022-08-17T15:21:38.910Z,25.40
2022-08-17T15:24:41.387Z,26.54
2022-08-17T15:27:44.073Z,26.55
2022-08-17T15:30:46.717Z,26.07
2022-08-17T15:33:49.160Z,25.75
2022-08-17T15:36:51.772Z,26.38
2022-08-17T15:39:54.752Z,26.59
2022-08-17T15:42:57.857Z,26.63
2022-08-17T15:46:12.557Z,27.08
2022-08-17T15:49:15.037Z,26.59
2022-08-17T15:52:18.980Z,26.00
2022-08-17T15:55:24.100Z,25.56
2022-08-17T15:58:30.073Z,26.07
2022-08-17T16:01:57.422Z,25.67
2022-08-17T16:05:11.378Z,27.55
2022-08-17T16:08:20.868Z,28.18
2022-08-17T16:11:25.948Z,27.63
2022-08-17T16:14:33.678Z,26.51
2022-08-17T16:17:40.291Z,28.40
2022-08-17T16:20:43.726Z,28.35
2022-08-17T16:23:49.109Z,26.82
2022-08-17T16:26:51.289Z,27.06
2022-08-17T16:29:55.566Z,27.77
2022-08-17T16:33:00.988Z,28.76
2022-08-17T16:36:03.732Z,28.66
2022-08-17T16:39:05.878Z,27.98
2022-08-17T16:42:45.222Z,27.23
2022-08-17T16:45:51.871Z,27.86
2022-08-17T16:48:56.738Z,28.76
2022-08-17T16:52:01.595Z,29.23
2022-08-17T16:55:07.089Z,29.71
2022-08-17T16:58:09.326Z,30.73
2022-08-17T17:01:12.771Z,30.78
2022-08-17T17:04:18.500Z,33.22
2022-08-17T17:07:40.376Z,32.25
2022-08-17T17:10:47.064Z,33.10
2022-08-17T17:14:02.147Z,32.64
2022-08-17T17:17:28.751Z,32.71
2022-08-17T17:20:42.492Z,33.38
2022-08-17T17:23:55.504Z,34.54
2022-08-17T17:27:17.618Z,34.64
2022-08-17T17:30:34.946Z,35.37
2022-08-17T17:33:42.610Z,36.69
2022-08-17T17:36:53.942Z,36.42
2022-08-17T17:40:01.972Z,36.56
2022-08-17T17:43:27.618Z,36.34
2022-08-17T17:46:35.249Z,37.13
2022-08-17T17:49:46.692Z,37.35
2022-08-17T17:52:52.181Z,36.39
2022-08-17T17:56:37.498Z,36.25
2022-08-17T18:00:13.348Z,37.13
2022-08-17T18:03:45.822Z,37.14
2022-08-17T18:07:25.535Z,38.06
2022-08-17T18:10:48.931Z,37.50
2022-08-17T18:14:06.827Z,37.23
2022-08-17T18:17:10.668Z,39.29
2022-08-17T18:20:13.981Z,40.28
2022-08-17T18:23:23.144Z,41.38
2022-08-17T18:26:32.750Z,43.16
2022-08-17T18:29:42.693Z,43.36
2022-08-17T18:32:48.895Z,43.39
2022-08-17T18:35:59.217Z,43.82
2022-08-17T18:39:15.309Z,43.06
2022-08-17T18:42:28.822Z,42.21
2022-08-17T18:45:39.357Z,41.62
2022-08-17T18:49:04.016Z,41.05
2022-08-17T18:52:15.350Z,41.24
2022-08-17T18:55:24.024Z,41.08
2022-08-17T18:58:26.192Z,40.84
2022-08-17T19:01:52.374Z,41.41
2022-08-17T19:05:04.614Z,41.86
2022-08-17T19:08:28.744Z,41.72
2022-08-17T19:11:34.633Z,42.04
2022-08-17T19:14:37.303Z,41.63
2022-08-17T19:17:49.089Z,42.24
2022-08-17T19:21:03.610Z,42.46
2022-08-17T19:24:05.643Z,42.86
2022-08-17T19:27:18.014Z,42.83
2022-08-17T19:30:22.120Z,43.24
2022-08-17T19:33:25.753Z,43.23
2022-08-17T19:36:44.491Z,43.14
2022-08-17T19:39:50.042Z,43.57
2022-08-17T19:43:18.751Z,43.65
2022-08-17T19:46:27.323Z,43.55
2022-08-17T19:49:52.590Z,43.23
2022-08-17T19:53:07.293Z,43.27
2022-08-17T19:56:25.001Z,43.65
2022-08-17T20:00:01.800Z,43.26
2022-08-17T20:03:19.106Z,44.04
2022-08-17T20:06:23.016Z,43.97
2022-08-17T20:09:33.478Z,45.91
2022-08-17T20:12:42.563Z,45.16
2022-08-17T20:15:45.974Z,45.31
2022-08-17T20:19:16.883Z,45.42
2022-08-17T20:22:52.119Z,45.63
2022-08-17T20:26:05.352Z,45.76
2022-08-17T20:29:29.561Z,46.69
2022-08-17T20:32:51.826Z,46.56
2022-08-17T20:36:02.407Z,46.94
2022-08-17T20:39:04.943Z,48.94
2022-08-17T20:42:22.390Z,49.25
2022-08-17T20:45:26.071Z,49.12
2022-08-17T20:48:38.459Z,49.79
2022-08-17T20:52:02.389Z,50.15
2022-08-17T20:55:05.235Z,49.98
2022-08-17T20:58:30.814Z,50.32
2022-08-17T21:01:39.906Z,50.73
2022-08-17T21:04:57.288Z,51.97
2022-08-17T21:08:26.053Z,52.27
2022-08-17T21:11:58.225Z,52.03
2022-08-17T21:14:59.924Z,52.31
2022-08-17T21:18:11.410Z,51.31
2022-08-17T21:21:41.539Z,51.38
2022-08-17T21:24:58.898Z,51.41
2022-08-17T21:28:34.206Z,51.48
2022-08-17T21:31:43.146Z,51.95
2022-08-17T21:35:19.810Z,51.60
2022-08-17T21:38:32.685Z,51.86
2022-08-17T21:41:54.848Z,52.94
2022-08-17T21:45:25.270Z,53.27
2022-08-17T21:48:29.895Z,52.99
2022-08-17T21:51:35.895Z,52.86
2022-08-17T21:54:42.633Z,52.93
2022-08-17T21:57:53.224Z,52.69
2022-08-17T22:01:21.643Z,52.92
2022-08-17T22:04:29.807Z,53.01
2022-08-17T22:07:46.650Z,53.71
2022-08-17T22:10:51.165Z,53.94
2022-08-17T22:14:05.111Z,54.56
2022-08-17T22:17:17.681Z,54.14
2022-08-17T22:20:21.515Z,54.29
2022-08-17T22:23:47.846Z,54.51
2022-08-17T22:27:05.853Z,55.33
2022-08-17T22:30:31.609Z,55.29
2022-08-17T22:33:40.263Z,55.85
2022-08-17T22:36:43.370Z,56.45
2022-08-17T22:39:45.567Z,55.88
2022-08-17T22:42:48.120Z,55.41
2022-08-17T22:45:54.490Z,54.95
2022-08-17T22:48:59.451Z,53.36
2022-08-17T22:52:07.467Z,54.34
2022-08-17T22:55:36.181Z,54.66
2022-08-17T22:59:22.489Z,54.12
2022-08-17T23:02:25.102Z,53.90
2022-08-17T23:05:27.301Z,52.50
2022-08-17T23:08:30.990Z,54.30
2022-08-17T23:11:50.066Z,53.04
2022-08-17T23:15:00.470Z,54.25
2022-08-17T23:18:04.792Z,53.68
2022-08-17T23:21:07.728Z,54.54
2022-08-17T23:24:13.929Z,55.46
2022-08-17T23:27:18.811Z,55.34
2022-08-17T23:30:26.318Z,55.48
2022-08-17T23:33:33.202Z,55.33
2022-08-17T23:36:35.344Z,55.88
2022-08-17T23:39:39.318Z,56.48
2022-08-17T23:42:46.255Z,56.84
2022-08-17T23:45:49.888Z,57.93
2022-08-17T23:48:53.935Z,58.30
2022-08-17T23:51:56.726Z,58.80
2022-08-17T23:54:59.356Z,58.57
2022-08-17T23:58:04.370Z,59.33
